• Join FlightAware (Why Join?)
  • Login
  • US Flag 
Rudolph Flight #1: Arrived! 
06:51PM EST


 

Airport Tracker/Info


-or-


 

Live Flight TrackerFlight Track Log ✈ N896CT ✈ 13-Aug-2013 ✈ KTVI - KLZU

Flight Track Log - Related Links

Times and Time Zones

All times are in EDT time to prevent confusion due to time zone crossing. See the N896CT flight status page for this flight to view local times or setup timezone preferences in your user account.

Time Position Orientation Groundspeed Altitude Reporting Facility
EDT Latitude Longitude Course Direction KTS MPH feet Rate Location/Type
11:07AM 31.1208 -83.8731 353° North 149 171 2,000  Level Jacksonville Center
11:08AM 31.1542 -83.8781 353° North 148 170 2,000 660 Level Jacksonville Center
11:09AM 31.1939 -83.8736 North 128 147 3,200 900 Climbing Jacksonville Center
11:10AM 31.2358 -83.8767 356° North 154 177 3,900 600 Climbing Jacksonville Center
11:11AM 31.2858 -83.8797 357° North 188 216 4,500 840 Climbing Jacksonville Center
11:12AM 31.3150 -83.8822 356° North 169 194 5,400 1,200 Climbing Jacksonville Center
11:13AM 31.3422 -83.8825 360° North 164 189 6,100 1,200 Climbing Jacksonville Center
11:13AM 31.3903 -83.8806 North 199 229 7,000 480 Climbing Jacksonville Center
11:14AM 31.4467 -83.8814 359° North 199 229 7,000  Level Jacksonville Center
11:15AM 31.4758 -83.8839 356° North 140 161 7,000  Level Jacksonville Center
11:16AM 31.5300 -83.8869 357° North 167 192 7,000  Level Jacksonville Center
11:17AM 31.5864 -83.8875 360° North 186 214 7,000  Level Jacksonville Center
11:18AM 31.6428 -83.8906 357° North 197 227 7,000  Level Jacksonville Center
11:19AM 31.7033 -83.8914 359° North 197 227 7,000  Level Jacksonville Center
11:20AM 31.7597 -83.8944 357° North 197 227 7,000  Level Jacksonville Center
11:21AM 31.8181 -83.8975 357° North 197 227 7,000  Level Jacksonville Center
11:23AM 31.9333 -83.9000 359° North 206 237 7,000  Level Atlanta TRACON
11:24AM 31.9833 -83.9000 360° North 203 234 7,000  Level Atlanta TRACON
11:25AM 32.0333 -83.9000 360° North 204 235 7,000  Level Atlanta TRACON
11:26AM 32.0833 -83.9000 360° North 206 237 7,000  Level Atlanta TRACON
11:27AM 32.1500 -83.9000 360° North 204 235 7,000 840 Level Atlanta TRACON
11:28AM 32.2000 -83.9000 360° North 169 194 8,700 1,620 Climbing Atlanta TRACON
11:29AM 32.2333 -83.9000 360° North 156 180 10,100 600 Climbing Atlanta TRACON
11:30AM 32.2833 -83.9167 344° North 197 227 10,000 300 Descending Atlanta TRACON
11:31AM 32.3500 -83.9167 360° North 188 216 10,700 600 Climbing Atlanta TRACON
11:32AM 32.4000 -83.9167 360° North 178 205 11,300 120 Climbing Atlanta TRACON
11:33AM 32.4644 -83.9158 North 179 206 11,000 -180 Descending Atlanta Center
11:34AM 32.5250 -83.9181 358° North 194 223 11,000  Level Atlanta Center
11:35AM 32.5836 -83.9206 358° North 199 229 11,000  Level Atlanta Center
11:36AM 32.6419 -83.9231 358° North 204 235 11,000  Level Atlanta Center
11:37AM 32.7006 -83.9228 360° North 204 235 11,000  Level Atlanta Center
11:38AM 32.7608 -83.9253 358° North 209 241 11,000  Level Atlanta Center
11:39AM 32.8194 -83.9300 356° North 209 241 11,000  Level Atlanta Center
11:40AM 32.8758 -83.9325 358° North 209 241 11,000  Level Atlanta Center
11:41AM 32.9364 -83.9300 North 209 241 11,000 -240 Level Atlanta Center
11:42AM 32.9928 -83.9322 358° North 209 241 10,600 -660 Descending Atlanta Center
11:43AM 33.0511 -83.9372 356° North 209 241 9,700 -900 Descending Atlanta Center
11:44AM 33.1136 -83.9172 15° North 209 241 8,800 -900 Descending Atlanta Center
11:45AM 33.1700 -83.8950 18° North 209 241 8,000 -780 Descending Atlanta Center
11:46AM 33.2264 -83.8775 15° North 209 241 7,300 -540 Descending Atlanta Center
11:47AM 33.2806 -83.8575 17° North 204 235 7,000 -180 Descending Atlanta Center
11:48AM 33.3308 -83.8425 14° North 204 235 7,000  Level Atlanta Center
11:49AM 33.3828 -83.8250 16° North 204 235 7,000 -300 Level Atlanta Center
11:50AM 33.4372 -83.8072 15° North 199 229 6,400 -660 Descending Atlanta Center
11:53AM 33.5500 -83.7833 10° North 183 211 5,100 -480 Descending Atlanta TRACON
11:53AM 33.6000 -83.8000 344° North 181 208 5,000 -60 Descending Atlanta TRACON
11:55AM 33.6500 -83.8333 331° Northwest 174 200 5,000  Level Atlanta TRACON
11:56AM 33.7000 -83.8167 15° North 194 223 5,000 -240 Level Atlanta TRACON
11:57AM 33.7333 -83.7833 40° Northeast 193 222 4,600 -540 Descending Atlanta TRACON
11:58AM 33.7833 -83.7500 29° Northeast 191 220 4,000 -300 Descending Atlanta TRACON
11:59AM 33.8333 -83.7167 29° Northeast 185 213 4,000  Level Atlanta TRACON
11:59AM 33.8833 -83.7000 15° North 188 216 4,000  Level Atlanta TRACON
12:00PM 33.9167 -83.7000 360° North 170 196 4,000  Level Atlanta TRACON
12:01PM 33.9667 -83.7000 360° North 166 191 4,000  Level Atlanta TRACON
12:02PM 34.0167 -83.7000 360° North 170 196 4,000 -60 Level Atlanta TRACON
12:03PM 34.0500 -83.7167 337° Northwest 170 196 3,900 -300 Descending Atlanta TRACON
12:04PM 34.0500 -83.7667 270° West 162 186 3,500 -480 Descending Atlanta TRACON
12:05PM 34.0333 -83.8167 248° West 160 184 3,000 -360 Descending Atlanta TRACON
12:06PM 34.0167 -83.8500 239° Southwest 110 127 2,800 -300 Descending Atlanta TRACON
12:07PM 34.0167 -83.8833 270° West 88 101 2,400 -480 Descending Atlanta TRACON
12:08PM 34.0000 -83.9167 239° Southwest 100 115 1,900 -540 Descending Atlanta TRACON
12:09PM 33.9833 -83.9333 220° Southwest 97 112 1,400 -600 Descending Atlanta TRACON
12:11PM 33.9667 -83.9500 239° Southwest  Level FlightAware Approximate
12:18PM 33.9781 -83.9624 239° Southwest  Level Estimated